Time;durP1;ratioP1;P1;durP2;ratioP2;P2;SDS_P1;SDS_P2;PMS_P1;PMS_P2;Temp;Humidity;BMP_temperature;BMP_pressure;BME280_temperature;BME280_humidity;BME280_pressure;Samples;Min_cycle;Max_cycle;Signal;HPM_P1;HPM_P2
2023/05/27 00:00:15;;;;;;;7.30;6.60;;;;;;;15.91;100.00;96877.56;5010320;28;101931;-62
2023/05/27 00:02:42;;;;;;;7.47;6.77;;;;;;;15.79;100.00;96869.81;5010514;28;104182;-62
2023/05/27 00:05:19;;;;;;;7.43;6.47;;;;;;;15.76;100.00;96874.91;5009418;28;104182;-61
2023/05/27 00:07:46;;;;;;;6.97;6.27;;;;;;;15.77;100.00;96866.59;5023865;28;105144;-61
2023/05/27 00:10:14;;;;;;;8.60;6.70;;;;;;;15.72;100.00;96873.84;4995231;28;105885;-61
2023/05/27 00:12:41;;;;;;;8.10;7.20;;;;;;;15.71;100.00;96872.22;5010343;28;101827;-61
2023/05/27 00:15:51;;;;;;;8.43;7.07;;;;;;;15.56;100.00;96870.38;5006560;28;105246;-61
2023/05/27 00:18:18;;;;;;;8.67;6.60;;;;;;;15.58;100.00;96875.47;5010807;28;102919;-61
2023/05/27 00:20:45;;;;;;;9.73;6.97;;;;;;;15.59;100.00;96874.41;5006493;28;101897;-61
2023/05/27 00:23:13;;;;;;;10.00;7.07;;;;;;;15.51;100.00;96874.94;4990183;28;104938;-61
2023/05/27 00:25:41;;;;;;;7.90;7.10;;;;;;;15.52;100.00;96868.47;5001855;28;104391;-61
2023/05/27 00:28:08;;;;;;;7.63;6.77;;;;;;;15.50;100.00;96870.63;5009416;28;105627;-61
2023/05/27 00:30:35;;;;;;;10.17;7.27;;;;;;;15.51;100.00;96872.25;5008914;28;104021;-61
2023/05/27 00:33:02;;;;;;;8.33;7.07;;;;;;;15.46;100.00;96869.56;5011142;28;101870;-61
2023/05/27 00:35:30;;;;;;;8.50;7.23;;;;;;;15.44;100.00;96866.34;5009451;28;104913;-62
2023/05/27 00:37:57;;;;;;;7.57;6.77;;;;;;;15.41;100.00;96875.75;5008908;28;103994;-61
2023/05/27 00:40:25;;;;;;;8.13;7.13;;;;;;;15.39;100.00;96875.22;5009573;28;102216;-61
2023/05/27 00:42:54;;;;;;;9.97;7.70;;;;;;;15.42;100.00;96877.34;5009744;28;105654;-61
2023/05/27 00:45:34;;;;;;;8.23;6.97;;;;;;;15.31;100.00;96872.25;5005274;28;105600;-61
2023/05/27 00:48:04;;;;;;;10.07;7.53;;;;;;;15.27;100.00;96871.16;5004000;28;101939;-61
2023/05/27 00:50:31;;;;;;;10.03;7.63;;;;;;;15.10;100.00;96875.97;5005321;28;105260;-61
2023/05/27 00:52:58;;;;;;;9.40;8.10;;;;;;;15.04;100.00;96877.84;4989573;28;102037;-61
2023/05/27 00:55:43;;;;;;;7.83;7.03;;;;;;;14.92;100.00;96877.28;4994785;28;104904;-61
2023/05/27 00:58:12;;;;;;;7.83;7.10;;;;;;;15.01;100.00;96881.06;4988817;28;105469;-61
2023/05/27 01:00:39;;;;;;;9.43;7.80;;;;;;;14.90;100.00;96875.94;5033590;27;101956;-61
2023/05/27 01:03:07;;;;;;;11.27;8.00;;;;;;;14.77;100.00;96877.25;5008786;28;105045;-61
2023/05/27 01:05:35;;;;;;;8.77;7.87;;;;;;;14.76;100.00;96881.00;5008600;28;105111;-62
2023/05/27 01:08:25;;;;;;;8.80;7.50;;;;;;;14.70;100.00;96878.56;5010452;28;102073;-61
2023/05/27 01:10:55;;;;;;;8.33;7.53;;;;;;;14.65;100.00;96879.38;5011310;28;105018;-61
2023/05/27 01:13:33;;;;;;;8.07;6.97;;;;;;;14.69;100.00;96876.97;5005763;28;101785;-61
2023/05/27 01:16:03;;;;;;;8.87;7.20;;;;;;;14.70;100.00;96871.34;5003193;28;105106;-62
2023/05/27 01:18:33;;;;;;;7.80;7.00;;;;;;;14.67;100.00;96871.88;5037250;27;105374;-62
2023/05/27 01:21:05;;;;;;;10.33;7.40;;;;;;;14.67;100.00;96876.44;5005724;28;102292;-62
2023/05/27 01:24:27;;;;;;;9.37;7.37;;;;;;;14.60;100.00;96875.88;5003698;28;102808;-62
2023/05/27 01:26:56;;;;;;;10.20;7.93;;;;;;;14.61;100.00;96870.25;5007882;28;106072;-61
2023/05/27 01:29:24;;;;;;;9.27;8.33;;;;;;;14.62;100.00;96871.88;5023281;27;102101;-61
2023/05/27 01:31:58;;;;;;;10.23;7.67;;;;;;;14.59;100.00;96874.25;5006411;28;101880;-61
2023/05/27 01:34:32;;;;;;;9.70;7.67;;;;;;;14.57;100.00;96865.69;4998699;28;105650;-61
2023/05/27 01:37:03;;;;;;;8.13;7.30;;;;;;;14.53;100.00;96870.78;5008813;28;104935;-61
2023/05/27 01:39:31;;;;;;;9.17;7.87;;;;;;;14.57;100.00;96866.50;5007959;28;104093;-61
2023/05/27 01:42:01;;;;;;;10.00;8.53;;;;;;;14.50;100.00;96868.59;5009024;28;102016;-61
2023/05/27 01:44:38;;;;;;;8.40;7.57;;;;;;;14.42;100.00;96866.44;5008854;28;105268;-61
2023/05/27 01:47:05;;;;;;;10.10;7.87;;;;;;;14.27;100.00;96863.72;5008195;28;104165;-61
2023/05/27 01:49:32;;;;;;;9.87;8.07;;;;;;;14.28;100.00;96872.56;5008246;28;101924;-61
2023/05/27 01:51:59;;;;;;;10.77;8.13;;;;;;;14.36;100.00;96874.72;5008291;28;105696;-61
2023/05/27 01:54:29;;;;;;;7.87;7.07;;;;;;;14.39;100.00;96868.84;5008113;28;105472;-61
2023/05/27 01:56:56;;;;;;;11.23;8.03;;;;;;;14.32;100.00;96868.28;5012073;28;101837;-61
2023/05/27 01:59:25;;;;;;;7.90;7.20;;;;;;;14.24;100.00;96868.78;5004755;28;105833;-62
2023/05/27 02:01:52;;;;;;;9.67;7.83;;;;;;;14.19;100.00;96861.56;5003325;28;101999;-61
2023/05/27 02:04:31;;;;;;;8.03;7.23;;;;;;;14.21;100.00;96861.28;5008517;28;105288;-62
2023/05/27 02:06:58;;;;;;;8.37;7.13;;;;;;;14.20;100.00;96857.81;5007637;28;105649;-61
2023/05/27 02:09:26;;;;;;;8.90;7.37;;;;;;;14.00;100.00;96864.91;5008156;28;102270;-61
2023/05/27 02:11:54;;;;;;;8.13;7.30;;;;;;;13.85;100.00;96862.94;5006432;28;104996;-61
2023/05/27 02:14:21;;;;;;;9.87;7.27;;;;;;;13.91;100.00;96861.13;4991578;28;105532;-61
2023/05/27 02:16:50;;;;;;;9.10;7.70;;;;;;;13.99;100.00;96863.28;5005638;28;102188;-61
2023/05/27 02:19:20;;;;;;;8.60;6.97;;;;;;;13.93;100.00;96867.81;5014791;28;104937;-61
2023/05/27 02:21:47;;;;;;;8.80;7.03;;;;;;;13.89;100.00;96863.25;5011753;28;102226;-62
2023/05/27 02:27:35;;;;;;;8.53;7.50;;;;;;;13.89;100.00;96865.94;5010787;28;105353;-61
2023/05/27 02:30:03;;;;;;;9.43;7.63;;;;;;;13.86;100.00;96866.44;5011747;28;102121;-62
2023/05/27 02:32:31;;;;;;;9.80;7.43;;;;;;;13.85;100.00;96870.97;5007997;28;105024;-62
2023/05/27 02:34:58;;;;;;;7.63;6.93;;;;;;;13.86;100.00;96871.78;4994916;28;105106;-61
2023/05/27 02:37:25;;;;;;;9.27;7.67;;;;;;;13.81;100.00;96861.88;5011839;28;102042;-61
2023/05/27 02:39:55;;;;;;;7.77;6.80;;;;;;;13.72;100.00;96871.44;5013985;28;104925;-61
2023/05/27 02:42:22;;;;;;;8.77;7.20;;;;;;;13.75;100.00;96872.78;4992555;28;102576;-62
2023/05/27 02:45:03;;;;;;;9.40;7.70;;;;;;;13.76;100.00;96869.03;5011473;28;104931;-61
2023/05/27 02:47:32;;;;;;;9.53;7.40;;;;;;;13.66;100.00;96871.63;5024472;28;105175;-62
2023/05/27 02:49:59;;;;;;;7.47;6.50;;;;;;;13.59;100.00;96874.56;4994840;28;102035;-62
2023/05/27 02:52:26;;;;;;;7.57;6.33;;;;;;;13.56;100.00;96868.91;5011413;28;104792;-61
2023/05/27 02:55:41;;;;;;;7.57;6.40;;;;;;;13.51;100.00;96867.00;5044133;27;105665;-61
2023/05/27 02:58:08;;;;;;;10.10;7.60;;;;;;;13.35;100.00;96864.50;5011244;28;101924;-61
2023/05/27 03:00:36;;;;;;;9.40;7.33;;;;;;;13.15;100.00;96867.00;5011580;28;104751;-61
2023/05/27 03:03:06;;;;;;;8.90;6.87;;;;;;;13.20;100.00;96867.03;5013923;28;105337;-62
2023/05/27 03:05:34;;;;;;;8.40;7.17;;;;;;;13.01;100.00;96868.47;5012425;28;103006;-61
2023/05/27 03:08:01;;;;;;;9.57;7.47;;;;;;;12.97;100.00;96860.16;5010562;28;105802;-61
2023/05/27 03:10:29;;;;;;;8.27;6.83;;;;;;;12.93;100.00;96858.22;5007710;28;102194;-61
2023/05/27 03:12:56;;;;;;;8.00;6.40;;;;;;;12.90;100.00;96864.06;5024491;28;105218;-61
2023/05/27 03:15:54;;;;;;;9.10;6.87;;;;;;;12.94;100.00;96859.84;5005996;28;105840;-61
2023/05/27 03:18:22;;;;;;;7.90;7.10;;;;;;;13.00;100.00;96870.34;4992951;28;101748;-61
2023/05/27 03:20:51;;;;;;;8.83;7.33;;;;;;;13.06;100.00;96868.50;5011070;28;105237;-61
2023/05/27 03:23:38;;;;;;;9.40;6.90;;;;;;;13.14;100.00;96865.41;5009005;28;105549;-62
2023/05/27 03:26:06;;;;;;;10.67;7.70;;;;;;;13.18;100.00;96871.81;5048505;27;101786;-61
2023/05/27 03:28:33;;;;;;;10.20;7.67;;;;;;;13.20;100.00;96867.03;5010026;28;104330;-61
2023/05/27 03:31:00;;;;;;;8.53;6.97;;;;;;;13.09;100.00;96868.81;5010685;28;101913;-61
2023/05/27 03:34:12;;;;;;;8.20;7.03;;;;;;;13.08;100.00;96866.41;5011509;28;103622;-61
2023/05/27 03:36:42;;;;;;;10.43;7.83;;;;;;;13.07;100.00;96872.78;5010290;28;105955;-61
2023/05/27 03:39:10;;;;;;;11.43;7.50;;;;;;;12.99;100.00;96874.09;5007356;28;101969;-61
2023/05/27 03:41:40;;;;;;;7.97;7.00;;;;;;;13.01;100.00;96876.47;5009591;28;102815;-61
2023/05/27 03:44:22;;;;;;;8.00;7.20;;;;;;;12.99;100.00;96868.75;5009959;28;106052;-62
2023/05/27 03:46:50;;;;;;;8.20;6.90;;;;;;;12.96;100.00;96868.41;5007002;28;101855;-61
2023/05/27 03:49:19;;;;;;;9.47;6.40;;;;;;;12.96;100.00;96868.41;5004530;28;105618;-61
2023/05/27 03:51:46;;;;;;;8.40;7.27;;;;;;;12.96;100.00;96868.41;5027135;28;102006;-61
2023/05/27 03:54:15;;;;;;;8.43;7.23;;;;;;;12.88;100.00;96874.19;5010227;28;104821;-61
2023/05/27 03:56:42;;;;;;;8.67;6.63;;;;;;;12.72;100.00;96867.09;4989899;28;105586;-61
2023/05/27 03:59:11;;;;;;;7.77;6.93;;;;;;;12.79;100.00;96870.34;4990308;28;101978;-61
2023/05/27 04:01:39;;;;;;;7.37;6.57;;;;;;;12.81;100.00;96874.38;4990096;28;105098;-61
2023/05/27 04:04:07;;;;;;;8.03;6.60;;;;;;;12.89;100.00;96873.13;4989578;28;105795;-61
2023/05/27 04:06:37;;;;;;;10.57;7.60;;;;;;;12.98;100.00;96871.66;4990349;28;101944;-62
2023/05/27 04:09:04;;;;;;;7.13;6.43;;;;;;;12.99;100.00;96879.41;4990201;28;105510;-61
2023/05/27 04:11:32;;;;;;;7.13;6.50;;;;;;;13.06;100.00;96876.53;4994154;28;103160;-61
2023/05/27 04:14:07;;;;;;;7.47;6.67;;;;;;;13.12;100.00;96876.31;5023732;28;105495;-61
2023/05/27 04:16:35;;;;;;;8.67;6.43;;;;;;;13.19;100.00;96865.44;4989521;28;105237;-61
2023/05/27 04:19:02;;;;;;;7.60;6.40;;;;;;;13.27;100.00;96867.63;4990033;28;101954;-61
2023/05/27 04:21:29;;;;;;;8.17;7.17;;;;;;;13.30;100.00;96872.47;5004736;28;104999;-61
2023/05/27 04:24:34;;;;;;;7.80;7.00;;;;;;;13.29;100.00;96862.81;5003570;28;104374;-61
2023/05/27 04:27:02;;;;;;;8.17;6.97;;;;;;;13.34;100.00;96865.53;5009599;28;101913;-62
2023/05/27 04:29:31;;;;;;;8.60;6.80;;;;;;;13.35;100.00;96861.81;5009669;28;105001;-61
2023/05/27 04:31:58;;;;;;;9.13;7.43;;;;;;;13.44;100.00;96863.75;5008913;28;105643;-61
2023/05/27 04:34:27;;;;;;;8.40;6.83;;;;;;;13.57;100.00;96865.97;5012619;28;101879;-62
2023/05/27 04:36:55;;;;;;;7.13;6.43;;;;;;;13.69;100.00;96869.25;5009356;28;106101;-61
2023/05/27 04:39:26;;;;;;;8.77;7.17;;;;;;;13.87;100.00;96860.00;5009745;28;101965;-62
2023/05/27 04:41:56;;;;;;;7.23;6.53;;;;;;;13.95;100.00;96856.88;5009477;28;105399;-61
2023/05/27 04:44:50;;;;;;;7.63;6.83;;;;;;;14.10;100.00;96854.25;5008928;28;105536;-61
2023/05/27 04:47:20;;;;;;;8.40;6.83;;;;;;;14.23;100.00;96864.50;5011022;28;102090;-61
2023/05/27 04:49:48;;;;;;;11.10;7.07;;;;;;;14.32;100.00;96860.25;5009522;28;104785;-61
2023/05/27 04:52:15;;;;;;;8.07;5.80;;;;;;;14.44;100.00;96863.53;5008853;28;105444;-61
2023/05/27 04:54:43;;;;;;;8.43;6.77;;;;;;;14.55;100.00;96862.50;5012957;28;101978;-61
2023/05/27 04:57:23;;;;;;;8.07;6.67;;;;;;;14.66;100.00;96853.41;5008793;28;104467;-61
2023/05/27 05:00:18;;;;;;;8.30;6.30;;;;;;;14.72;100.00;96863.06;5009293;28;102013;-61
2023/05/27 05:02:47;;;;;;;7.50;6.13;;;;;;;14.59;100.00;96860.88;5026269;28;104377;-62
2023/05/27 05:05:17;;;;;;;10.20;7.47;;;;;;;14.51;100.00;96858.72;5008569;28;105626;-62
2023/05/27 05:07:45;;;;;;;8.87;6.73;;;;;;;14.54;100.00;96861.66;5005797;28;101876;-62
2023/05/27 05:10:15;;;;;;;7.37;6.50;;;;;;;14.69;100.00;96852.88;4989424;28;104577;-61
2023/05/27 05:12:52;;;;;;;9.03;7.10;;;;;;;14.85;100.00;96857.19;5021696;28;105840;-61
2023/05/27 05:15:27;;;;;;;11.47;7.07;;;;;;;14.88;100.00;96867.38;4996649;28;102034;-61
2023/05/27 05:17:56;;;;;;;8.77;6.57;;;;;;;15.03;100.00;96856.66;5012156;28;104949;-61
2023/05/27 05:20:23;;;;;;;8.50;6.30;;;;;;;15.22;100.00;96863.94;5009092;28;101798;-62
2023/05/27 05:22:50;;;;;;;8.03;6.60;;;;;;;15.37;100.00;96868.50;5008855;28;105477;-61
2023/05/27 05:25:17;;;;;;;9.57;6.93;;;;;;;15.45;100.00;96862.59;5005037;28;105598;-62
2023/05/27 05:27:49;;;;;;;9.40;6.50;;;;;;;15.56;100.00;96865.00;4988292;28;102292;-61
2023/05/27 05:30:17;;;;;;;9.07;6.30;;;;;;;15.67;100.00;96871.97;4990385;28;102950;-61
2023/05/27 05:32:44;;;;;;;7.90;6.07;;;;;;;15.66;100.00;96866.88;4988481;28;105686;-62
2023/05/27 05:35:17;;;;;;;9.60;6.60;;;;;;;15.64;100.00;96869.81;4998763;28;102056;-61
2023/05/27 05:37:50;;;;;;;8.57;6.33;;;;;;;15.71;100.00;96872.22;5008596;28;105193;-62
2023/05/27 05:40:18;;;;;;;9.87;6.47;;;;;;;15.68;100.00;96867.41;5011396;28;104199;-62
2023/05/27 05:42:56;;;;;;;10.93;6.27;;;;;;;15.86;100.00;96870.31;5008741;28;104026;-62
2023/05/27 05:45:27;;;;;;;8.30;6.50;;;;;;;16.18;100.00;96872.66;5004501;28;105104;-61
2023/05/27 05:47:56;;;;;;;8.63;6.10;;;;;;;16.35;100.00;96879.28;4988157;28;102074;-62
2023/05/27 05:50:26;;;;;;;9.27;5.80;;;;;;;16.42;100.00;96879.03;4988837;28;105248;-62
2023/05/27 05:52:53;;;;;;;10.10;6.07;;;;;;;16.27;100.00;96877.19;4987882;28;105119;-62
2023/05/27 05:55:26;;;;;;;9.03;5.83;;;;;;;16.12;100.00;96879.09;4995340;28;103077;-62
2023/05/27 05:57:53;;;;;;;7.77;5.53;;;;;;;16.36;100.00;96880.09;4990218;28;105333;-61
2023/05/27 06:00:22;;;;;;;7.40;5.63;;;;;;;16.70;100.00;96886.41;5004344;28;105307;-62
2023/05/27 06:02:54;;;;;;;7.83;5.73;;;;;;;16.87;100.00;96889.53;4992106;28;101872;-62
2023/05/27 06:05:42;;;;;;;6.27;5.50;;;;;;;16.99;100.00;96879.25;5021310;28;105123;-62
2023/05/27 06:08:10;;;;;;;8.40;5.07;;;;;;;17.03;100.00;96886.50;4988295;28;101918;-61
2023/05/27 06:10:40;;;;;;;9.37;5.73;;;;;;;16.91;100.00;96888.72;4988508;28;104794;-62
2023/05/27 06:13:10;;;;;;;8.27;5.90;;;;;;;17.05;100.00;96886.22;5021198;28;104947;-62
2023/05/27 06:15:38;;;;;;;7.30;5.30;;;;;;;17.26;100.00;96880.41;4988407;28;101901;-61
2023/05/27 06:18:11;;;;;;;7.97;5.50;;;;;;;17.19;100.00;96889.88;4988450;28;105205;-62
2023/05/27 06:20:38;;;;;;;7.83;5.17;;;;;;;17.19;100.00;96889.88;4987667;28;105334;-62
2023/05/27 06:23:05;;;;;;;8.83;5.70;;;;;;;17.20;100.00;96886.09;4988121;28;101922;-62
2023/05/27 06:25:32;;;;;;;8.07;5.20;;;;;;;17.17;100.00;96884.78;4992364;28;102473;-62
2023/05/27 06:28:04;;;;;;;6.60;5.00;;;;;;;17.17;100.00;96884.00;4999265;28;102109;-62
2023/05/27 06:30:33;;;;;;;10.27;5.83;;;;;;;17.37;100.00;96883.81;5008259;28;105098;-62
2023/05/27 06:33:02;;;;;;;9.13;5.40;;;;;;;17.65;100.00;96885.78;5007422;28;105204;-62
2023/05/27 06:35:32;;;;;;;8.23;5.63;;;;;;;17.68;100.00;96871.75;5004506;28;102026;-62
2023/05/27 06:37:59;;;;;;;8.20;5.67;;;;;;;17.68;100.00;96874.44;4997974;28;105201;-61
2023/05/27 06:40:27;;;;;;;7.60;5.53;;;;;;;17.97;100.00;96875.22;5003947;28;105265;-62
2023/05/27 06:42:55;;;;;;;8.07;5.50;;;;;;;17.99;100.00;96875.78;4999040;28;102276;-61
2023/05/27 06:45:40;;;;;;;8.47;4.93;;;;;;;18.26;100.00;96870.63;5006354;28;102253;-60
2023/05/27 06:48:46;;;;;;;9.03;5.40;;;;;;;18.05;100.00;96883.47;4969755;28;101881;-60
2023/05/27 06:51:16;;;;;;;6.77;5.20;;;;;;;18.25;100.00;96877.88;4950567;28;105271;-60
2023/05/27 06:53:43;;;;;;;7.13;5.20;;;;;;;18.41;100.00;96870.47;4976003;28;105653;-60
2023/05/27 06:56:14;;;;;;;8.83;5.63;;;;;;;18.62;100.00;96877.19;5007724;28;102046;-60
2023/05/27 06:59:10;;;;;;;6.83;4.93;;;;;;;18.53;100.00;96873.56;4974351;28;102493;-60
2023/05/27 07:01:38;;;;;;;8.63;5.20;;;;;;;18.72;100.00;96869.81;5010646;28;105795;-60
2023/05/27 07:04:34;;;;;;;8.60;5.60;;;;;;;18.78;100.00;96875.91;5011093;28;101933;-60
2023/05/27 07:07:06;;;;;;;7.23;5.60;;;;;;;18.77;100.00;96879.69;5011423;28;105609;-60
2023/05/27 07:09:33;;;;;;;7.30;5.50;;;;;;;18.95;100.00;96873.50;5013609;28;105502;-60
2023/05/27 07:12:01;;;;;;;8.37;5.40;;;;;;;19.10;100.00;96873.31;5010943;28;105458;-60
2023/05/27 07:15:10;;;;;;;10.90;5.40;;;;;;;19.34;100.00;96876.75;5011391;28;105982;-60
2023/05/27 07:17:39;;;;;;;7.33;5.20;;;;;;;19.26;100.00;96874.72;5012526;28;101800;-60
2023/05/27 07:20:07;;;;;;;8.77;5.70;;;;;;;19.49;100.00;96877.31;5010808;28;105287;-60
2023/05/27 07:22:36;;;;;;;7.60;4.53;;;;;;;19.60;100.00;96875.22;5010416;28;105898;-61
2023/05/27 07:25:12;;;;;;;6.73;5.20;;;;;;;19.67;100.00;96883.75;5010583;28;102460;-60
2023/05/27 07:27:40;;;;;;;10.47;5.17;;;;;;;18.65;100.00;96866.63;5010248;28;104889;-60
2023/05/27 07:30:08;;;;;;;5.47;4.80;;;;;;;19.09;100.00;96871.69;5007218;28;105727;-60
2023/05/27 07:32:58;;;;;;;7.63;4.93;;;;;;;19.58;100.00;96869.34;4994318;28;101777;-60
2023/05/27 07:36:15;;;;;;;8.07;4.93;;;;;;;19.34;100.00;96868.66;5010104;28;105122;-60
2023/05/27 07:38:44;;;;;;;8.07;5.17;;;;;;;19.24;100.00;96871.50;5007054;28;101905;-60
2023/05/27 07:41:12;;;;;;;9.33;5.33;;;;;;;19.66;100.00;96861.38;4997134;28;105429;-60
2023/05/27 07:44:05;;;;;;;6.57;5.30;;;;;;;19.35;100.00;96864.88;5009461;28;105481;-60
2023/05/27 07:46:33;;;;;;;7.60;5.47;;;;;;;19.71;100.00;96860.47;5007149;28;102019;-60
2023/05/27 07:49:01;;;;;;;7.33;5.20;;;;;;;19.93;100.00;96860.59;4990562;28;105205;-60
2023/05/27 07:51:28;;;;;;;7.33;4.97;;;;;;;20.22;100.00;96864.66;5000270;28;105478;-60
2023/05/27 07:54:03;;;;;;;8.23;5.37;;;;;;;20.37;100.00;96861.69;5028609;27;102014;-60
2023/05/27 07:56:31;;;;;;;7.13;4.93;;;;;;;20.36;100.00;96859.28;5004508;28;105624;-60
2023/05/27 07:58:59;;;;;;;12.03;5.07;;;;;;;20.45;100.00;96854.78;5006976;28;101948;-60
2023/05/27 08:01:31;;;;;;;8.97;5.03;;;;;;;20.70;100.00;96859.66;4990467;28;105301;-60
2023/05/27 08:07:25;;;;;;;9.93;5.40;;;;;;;20.48;100.00;96856.88;5010004;28;102495;-61
2023/05/27 08:10:13;;;;;;;8.30;5.23;;;;;;;20.94;100.00;96858.34;5007939;28;102081;-61
2023/05/27 08:13:09;;;;;;;8.80;5.13;;;;;;;21.12;100.00;96861.97;5005015;28;102982;-61
2023/05/27 08:15:47;;;;;;;6.73;5.40;;;;;;;21.29;100.00;96862.13;5010253;28;101887;-60
2023/05/27 08:18:40;;;;;;;7.13;5.20;;;;;;;21.46;100.00;96859.53;5008593;28;102773;-60
2023/05/27 08:21:15;;;;;;;7.23;4.60;;;;;;;21.66;99.85;96850.94;5012771;28;105811;-60
2023/05/27 08:24:05;;;;;;;6.97;5.20;;;;;;;21.60;99.60;96857.59;5010118;28;105611;-60
2023/05/27 08:26:53;;;;;;;9.37;5.00;;;;;;;21.47;100.00;96853.81;5001745;28;102941;-60
2023/05/27 08:29:30;;;;;;;7.13;5.17;;;;;;;21.87;100.00;96846.63;5009969;28;102251;-60
2023/05/27 08:32:16;;;;;;;7.27;5.20;;;;;;;22.11;96.66;96847.88;5011707;28;102714;-60
2023/05/27 08:34:51;;;;;;;6.57;4.90;;;;;;;22.04;98.99;96836.69;5005869;28;105355;-60
2023/05/27 08:37:18;;;;;;;8.33;4.93;;;;;;;22.12;96.87;96833.19;4999969;28;102122;-60
2023/05/27 08:39:48;;;;;;;9.93;5.03;;;;;;;21.85;95.37;96838.03;5007867;28;104810;-60
2023/05/27 08:42:27;;;;;;;8.90;4.87;;;;;;;22.11;95.63;96830.78;5002294;28;104427;-60
2023/05/27 08:45:00;;;;;;;6.67;4.70;;;;;;;22.10;92.97;96831.91;5026678;28;102184;-61
2023/05/27 08:47:29;;;;;;;7.07;4.83;;;;;;;22.28;94.10;96828.19;5005165;28;105492;-60
2023/05/27 08:49:58;;;;;;;7.43;5.10;;;;;;;22.53;91.60;96824.75;5009430;28;101821;-61
2023/05/27 08:52:27;;;;;;;6.97;4.87;;;;;;;22.77;86.90;96822.44;5009559;28;105167;-60
2023/05/27 08:55:07;;;;;;;7.47;4.73;;;;;;;22.75;87.46;96821.94;5005249;28;105784;-60
2023/05/27 08:57:38;;;;;;;5.83;4.77;;;;;;;22.56;92.02;96822.22;5002257;28;102742;-60
2023/05/27 09:00:11;;;;;;;7.03;4.87;;;;;;;22.86;82.76;96825.94;5002107;28;105482;-60
2023/05/27 09:02:39;;;;;;;6.37;5.03;;;;;;;22.71;84.88;96823.69;5008388;28;105871;-60
2023/05/27 09:05:40;;;;;;;8.13;5.50;;;;;;;22.76;87.71;96816.19;5012401;28;101985;-60
2023/05/27 09:08:09;;;;;;;7.97;5.20;;;;;;;22.73;86.07;96818.75;5005674;28;105632;-60
2023/05/27 09:10:37;;;;;;;9.27;5.20;;;;;;;23.27;92.97;96823.59;4989386;28;101976;-61
2023/05/27 09:13:06;;;;;;;6.90;5.30;;;;;;;23.27;76.81;96810.03;5009027;28;105406;-60
2023/05/27 09:15:34;;;;;;;6.63;4.93;;;;;;;22.92;88.44;96813.81;5007992;28;105674;-60
2023/05/27 09:18:03;;;;;;;7.93;4.93;;;;;;;23.32;93.72;96807.94;5010584;28;102374;-60
2023/05/27 09:20:30;;;;;;;8.40;5.47;;;;;;;23.34;89.23;96802.19;5005068;28;105492;-60
2023/05/27 09:22:58;;;;;;;7.23;5.20;;;;;;;23.58;76.82;96802.47;4988119;28;105802;-60
2023/05/27 09:25:28;;;;;;;6.13;5.40;;;;;;;23.60;83.54;96808.38;5001958;28;101927;-60
2023/05/27 09:27:56;;;;;;;6.47;5.77;;;;;;;23.52;81.43;96809.19;5012643;28;103089;-60
2023/05/27 09:30:26;;;;;;;8.63;5.77;;;;;;;22.80;82.74;96800.09;5005429;28;101882;-60
2023/05/27 09:33:02;;;;;;;8.47;5.40;;;;;;;22.99;98.62;96792.47;5002589;28;105253;-60
2023/05/27 09:35:48;;;;;;;7.93;5.20;;;;;;;23.30;86.80;96798.53;5007877;28;105777;-60
2023/05/27 09:38:15;;;;;;;8.80;5.60;;;;;;;23.68;81.54;96788.53;5005267;28;102131;-61
2023/05/27 09:40:45;;;;;;;12.07;6.10;;;;;;;23.60;78.09;96792.88;4991935;28;105352;-61
2023/05/27 09:43:15;;;;;;;9.47;5.90;;;;;;;24.03;76.27;96790.06;5008108;28;106058;-60
2023/05/27 09:45:45;;;;;;;7.87;5.63;;;;;;;24.13;76.51;96795.16;5010195;28;102318;-60
2023/05/27 09:48:14;;;;;;;6.87;5.10;;;;;;;24.24;69.50;96788.22;5042359;27;105539;-60
2023/05/27 09:50:42;;;;;;;9.50;5.83;;;;;;;24.28;68.81;96787.22;5011230;28;105964;-60
2023/05/27 09:53:09;;;;;;;9.17;6.33;;;;;;;24.46;67.62;96785.22;5008644;28;104055;-60
2023/05/27 09:55:37;;;;;;;8.23;5.80;;;;;;;24.26;70.92;96780.53;5007543;28;105641;-60
2023/05/27 09:58:04;;;;;;;7.67;5.10;;;;;;;24.64;77.76;96784.00;5008512;28;101881;-60
2023/05/27 10:00:31;;;;;;;8.93;5.70;;;;;;;24.95;73.21;96789.88;5010141;28;102615;-60
2023/05/27 10:03:02;;;;;;;6.83;5.30;;;;;;;25.01;62.09;96780.38;5002838;28;102941;-60
2023/05/27 10:05:30;;;;;;;7.17;5.60;;;;;;;25.21;58.68;96785.81;5035115;27;101935;-60
2023/05/27 10:07:57;;;;;;;6.43;5.17;;;;;;;24.82;61.74;96774.59;5008631;28;105096;-60
2023/05/27 10:10:25;;;;;;;6.47;5.10;;;;;;;25.22;58.17;96771.06;5041542;27;105852;-60
2023/05/27 10:12:54;;;;;;;5.70;5.20;;;;;;;25.32;59.92;96776.13;4993332;28;102101;-61
2023/05/27 10:15:29;;;;;;;7.20;4.83;;;;;;;25.48;59.24;96759.94;4987716;28;105429;-60
2023/05/27 10:17:58;;;;;;;7.17;4.63;;;;;;;25.77;58.02;96760.59;5005143;28;101783;-60
2023/05/27 10:20:28;;;;;;;6.63;4.77;;;;;;;25.81;55.58;96763.44;5007586;28;105586;-61
2023/05/27 10:22:56;;;;;;;6.87;4.80;;;;;;;25.71;53.85;96761.16;5007070;28;105896;-60
2023/05/27 10:25:37;;;;;;;6.83;4.67;;;;;;;25.67;56.71;96760.25;5008325;28;101985;-60
2023/05/27 10:28:04;;;;;;;5.17;4.70;;;;;;;25.45;54.27;96760.63;5004556;28;105131;-60
2023/05/27 10:30:43;;;;;;;6.07;4.73;;;;;;;25.42;54.04;96756.66;4989332;28;102879;-60
2023/05/27 10:33:12;;;;;;;5.30;4.37;;;;;;;25.23;59.67;96760.97;5010264;28;101901;-60
2023/05/27 10:35:45;;;;;;;5.83;4.57;;;;;;;25.43;54.38;96760.16;5014320;28;105491;-60
2023/05/27 10:38:17;;;;;;;5.80;4.27;;;;;;;25.40;52.28;96763.56;4992958;28;101907;-61
2023/05/27 10:40:46;;;;;;;5.30;4.10;;;;;;;25.81;47.05;96755.25;5004728;28;105415;-60
2023/05/27 10:43:20;;;;;;;7.07;4.90;;;;;;;25.47;50.58;96753.72;4992510;28;102808;-60
2023/05/27 10:45:47;;;;;;;9.73;7.83;;;;;;;25.87;50.01;96756.63;5008119;28;101867;-60
2023/05/27 10:48:19;;;;;;;7.17;5.13;;;;;;;26.47;46.91;96754.75;5011393;28;105419;-60
2023/05/27 10:50:54;;;;;;;6.90;4.50;;;;;;;26.09;45.75;96750.78;5010996;28;105210;-60
2023/05/27 10:53:57;;;;;;;5.17;3.83;;;;;;;25.82;43.85;96735.06;5012367;28;101828;-60
2023/05/27 10:56:25;;;;;;;6.83;4.07;;;;;;;26.05;44.11;96745.19;5011490;28;105502;-60
2023/05/27 10:58:54;;;;;;;6.77;5.43;;;;;;;26.39;43.64;96736.59;5014078;28;105578;-60
2023/05/27 11:01:29;;;;;;;7.63;4.77;;;;;;;26.21;46.10;96742.63;5007753;28;105552;-60
2023/05/27 11:04:02;;;;;;;7.73;5.00;;;;;;;26.43;42.34;96742.16;4992228;28;103187;-60
2023/05/27 11:06:30;;;;;;;6.80;5.10;;;;;;;26.32;42.54;96738.28;5007731;28;101825;-60
2023/05/27 11:08:58;;;;;;;7.00;4.53;;;;;;;26.65;41.30;96733.50;5012349;28;103096;-60
2023/05/27 11:11:25;;;;;;;6.47;4.63;;;;;;;26.85;43.51;96732.53;5010343;28;105836;-59
2023/05/27 11:14:20;;;;;;;6.37;4.20;;;;;;;26.87;40.59;96733.00;5010999;28;101996;-60
2023/05/27 11:16:51;;;;;;;6.00;3.80;;;;;;;26.89;40.67;96727.97;5007721;28;103945;-60
2023/05/27 11:19:18;;;;;;;6.90;3.80;;;;;;;26.98;40.51;96729.41;4994176;28;104076;-60
2023/05/27 11:21:47;;;;;;;5.33;4.03;;;;;;;27.14;41.79;96718.56;5007122;28;105563;-60
2023/05/27 11:24:23;;;;;;;5.37;4.13;;;;;;;27.38;39.90;96715.72;5010367;28;105622;-60
2023/05/27 11:26:50;;;;;;;5.33;4.27;;;;;;;26.29;42.00;96717.94;5010365;28;102066;-60
2023/05/27 11:29:18;;;;;;;6.63;4.33;;;;;;;26.76;40.59;96710.06;5012338;28;102511;-60
2023/05/27 11:31:47;;;;;;;6.93;4.03;;;;;;;26.42;42.10;96710.56;5011494;28;102672;-59
2023/05/27 11:34:18;;;;;;;7.37;4.03;;;;;;;26.81;44.23;96704.34;5010829;28;101976;-60
2023/05/27 11:36:47;;;;;;;5.40;4.17;;;;;;;26.82;42.35;96700.47;5010639;28;105318;-59
2023/05/27 11:39:16;;;;;;;5.80;4.00;;;;;;;26.94;42.82;96698.50;5006395;28;105150;-60
2023/05/27 11:41:51;;;;;;;5.67;3.87;;;;;;;27.01;38.93;96689.69;5013622;28;101952;-60
2023/05/27 11:44:22;;;;;;;5.07;4.13;;;;;;;26.55;41.03;96684.88;5008867;28;105230;-59
2023/05/27 11:46:50;;;;;;;6.10;4.30;;;;;;;26.80;44.46;96702.78;5010604;28;101872;-60
2023/05/27 11:49:18;;;;;;;4.30;3.80;;;;;;;26.81;40.27;96688.75;5010705;28;105115;-60